createdAt,value
2022-10-19T00:00:44.107Z,2.35
2022-10-19T00:03:12.602Z,2.17
2022-10-19T00:05:39.737Z,2.28
2022-10-19T00:08:06.876Z,2.85
2022-10-19T00:10:34.046Z,2.50
2022-10-19T00:13:01.264Z,2.35
2022-10-19T00:15:28.380Z,2.50
2022-10-19T00:17:55.981Z,2.35
2022-10-19T00:20:24.460Z,2.20
2022-10-19T00:22:51.556Z,2.20
2022-10-19T00:25:18.838Z,2.47
2022-10-19T00:27:45.939Z,2.70
2022-10-19T00:30:13.036Z,2.25
2022-10-19T00:32:40.294Z,2.40
2022-10-19T00:35:08.326Z,2.20
2022-10-19T00:37:36.791Z,2.50
2022-10-19T00:40:04.671Z,2.35
2022-10-19T00:42:32.017Z,2.20
2022-10-19T00:45:02.583Z,2.30
2022-10-19T00:47:30.812Z,2.22
2022-10-19T00:49:59.164Z,2.40
2022-10-19T00:52:27.597Z,2.53
2022-10-19T00:54:57.527Z,2.33
2022-10-19T00:57:28.549Z,2.60
2022-10-19T00:59:57.203Z,2.13
2022-10-19T01:02:24.761Z,2.50
2022-10-19T01:04:53.281Z,2.63
2022-10-19T01:07:21.073Z,2.10
2022-10-19T01:09:48.303Z,2.25
2022-10-19T01:12:40.686Z,2.30
2022-10-19T01:15:22.050Z,2.30
2022-10-19T01:17:57.043Z,2.45
2022-10-19T01:21:02.673Z,2.35
2022-10-19T01:24:10.164Z,2.30
2022-10-19T01:27:24.148Z,2.47
2022-10-19T01:30:01.710Z,2.25
2022-10-19T01:32:35.881Z,2.30
2022-10-19T01:35:10.023Z,2.53
2022-10-19T01:37:43.483Z,2.65
2022-10-19T01:40:17.883Z,2.22
2022-10-19T01:42:49.464Z,2.45
2022-10-19T01:45:21.702Z,2.33
2022-10-19T01:47:55.345Z,2.40
2022-10-19T01:50:29.085Z,2.30
2022-10-19T01:52:57.709Z,2.25
2022-10-19T01:55:27.635Z,2.47
2022-10-19T01:58:00.289Z,2.20
2022-10-19T02:00:31.416Z,2.25
2022-10-19T02:03:00.488Z,2.42
2022-10-19T02:05:31.547Z,2.25
2022-10-19T02:08:02.724Z,2.17
2022-10-19T02:10:32.423Z,2.50
2022-10-19T02:13:02.863Z,2.63
2022-10-19T02:15:36.716Z,2.22
2022-10-19T02:18:05.927Z,2.30
2022-10-19T02:20:35.358Z,2.30
2022-10-19T02:23:04.344Z,2.20
2022-10-19T02:25:32.088Z,2.40
2022-10-19T02:28:01.061Z,2.28
2022-10-19T02:30:28.580Z,2.10
2022-10-19T02:32:57.194Z,2.30
2022-10-19T02:35:24.339Z,2.42
2022-10-19T02:37:51.771Z,2.28
2022-10-19T02:40:19.156Z,2.22
2022-10-19T02:42:52.696Z,2.10
2022-10-19T02:45:24.182Z,2.00
2022-10-19T02:47:54.737Z,2.20
2022-10-19T02:50:23.919Z,2.30
2022-10-19T02:52:51.350Z,2.40
2022-10-19T02:55:18.639Z,2.08
2022-10-19T02:57:45.729Z,2.00
2022-10-19T03:00:13.088Z,2.25
2022-10-19T03:02:40.188Z,2.10
2022-10-19T03:05:08.439Z,2.05
2022-10-19T03:07:37.600Z,2.20
2022-10-19T03:10:05.473Z,2.15
2022-10-19T03:12:32.571Z,2.00
2022-10-19T03:14:59.687Z,2.33
2022-10-19T03:17:26.808Z,2.08
2022-10-19T03:19:53.915Z,1.83
2022-10-19T03:22:21.140Z,2.00
2022-10-19T03:24:49.608Z,2.00
2022-10-19T03:27:16.694Z,2.10
2022-10-19T03:29:43.823Z,1.85
2022-10-19T03:32:10.921Z,2.00
2022-10-19T03:34:38.020Z,2.08
2022-10-19T03:37:05.144Z,1.95
2022-10-19T03:39:32.315Z,2.20
2022-10-19T03:42:00.907Z,2.20
2022-10-19T03:44:28.055Z,2.22
2022-10-19T03:46:55.146Z,2.10
2022-10-19T03:49:22.376Z,1.85
2022-10-19T03:51:49.497Z,2.05
2022-10-19T03:54:17.133Z,2.00
2022-10-19T03:56:44.564Z,2.20
2022-10-19T03:59:15.069Z,2.05
2022-10-19T04:01:44.350Z,1.85
2022-10-19T04:04:13.712Z,2.42
2022-10-19T04:06:42.686Z,2.17
2022-10-19T04:09:12.115Z,1.85
2022-10-19T04:11:39.634Z,2.22
2022-10-19T04:14:07.034Z,2.28
2022-10-19T04:16:35.526Z,2.70
2022-10-19T04:19:03.437Z,3.17
2022-10-19T04:21:32.313Z,2.50
2022-10-19T04:24:01.305Z,2.60
2022-10-19T04:26:28.792Z,2.20
2022-10-19T04:28:57.503Z,2.13
2022-10-19T04:31:24.724Z,2.33
2022-10-19T04:33:53.235Z,2.25
2022-10-19T04:36:20.607Z,2.30
2022-10-19T04:38:47.710Z,2.20
2022-10-19T04:41:17.467Z,2.70
2022-10-19T04:43:45.213Z,2.35
2022-10-19T04:46:14.640Z,2.45
2022-10-19T04:48:42.242Z,2.10
2022-10-19T04:51:11.300Z,2.10
2022-10-19T04:53:39.639Z,2.65
2022-10-19T04:56:09.500Z,2.38
2022-10-19T04:58:36.810Z,2.30
2022-10-19T05:01:07.895Z,2.28
2022-10-19T05:03:35.081Z,2.30
2022-10-19T05:06:02.635Z,2.50
2022-10-19T05:08:31.205Z,2.38
2022-10-19T05:11:01.542Z,2.30
2022-10-19T05:13:28.817Z,2.50
2022-10-19T05:15:56.935Z,2.20
2022-10-19T05:18:24.219Z,2.00
2022-10-19T05:20:51.647Z,2.38
2022-10-19T05:23:18.793Z,2.30
2022-10-19T05:25:47.329Z,2.10
2022-10-19T05:28:14.435Z,2.50
2022-10-19T05:30:45.405Z,1.92
2022-10-19T05:33:15.280Z,2.10
2022-10-19T05:35:42.368Z,2.10
2022-10-19T05:38:09.471Z,2.20
2022-10-19T05:40:36.657Z,2.45
2022-10-19T05:43:05.104Z,2.30
2022-10-19T05:45:32.222Z,2.20
2022-10-19T05:47:59.342Z,2.42
2022-10-19T05:50:26.430Z,2.40
2022-10-19T05:52:53.544Z,2.10
2022-10-19T05:55:20.697Z,2.30
2022-10-19T05:57:47.824Z,2.08
2022-10-19T06:00:16.693Z,2.30
2022-10-19T06:02:43.780Z,2.45
2022-10-19T06:05:10.873Z,2.70
2022-10-19T06:07:37.987Z,2.20
2022-10-19T06:10:06.061Z,2.40
2022-10-19T06:12:33.162Z,2.67
2022-10-19T06:15:00.298Z,3.00
2022-10-19T06:17:29.755Z,2.47
2022-10-19T06:19:56.872Z,2.50
2022-10-19T06:22:23.980Z,2.38
2022-10-19T06:24:51.564Z,2.40
2022-10-19T06:27:18.713Z,2.58
2022-10-19T06:29:45.827Z,2.72
2022-10-19T06:32:12.923Z,2.28
2022-10-19T06:34:41.360Z,2.45
2022-10-19T06:37:08.454Z,2.50
2022-10-19T06:39:35.556Z,2.47
2022-10-19T06:42:02.657Z,2.30
2022-10-19T06:44:29.768Z,2.28
2022-10-19T06:46:56.887Z,2.60
2022-10-19T06:49:23.978Z,2.50
2022-10-19T06:51:52.433Z,2.50
2022-10-19T06:54:19.538Z,2.58
2022-10-19T06:56:46.667Z,2.30
2022-10-19T06:59:14.891Z,2.20
2022-10-19T07:01:42.206Z,2.65
2022-10-19T07:04:09.324Z,2.33
2022-10-19T07:06:36.525Z,2.20
2022-10-19T07:09:05.088Z,2.33
2022-10-19T07:11:32.246Z,2.47
2022-10-19T07:13:59.328Z,2.40
2022-10-19T07:16:26.447Z,2.38
2022-10-19T07:18:54.008Z,2.28
2022-10-19T07:21:22.728Z,2.72
2022-10-19T07:23:50.589Z,2.90
2022-10-19T07:26:21.436Z,2.58
2022-10-19T07:28:49.060Z,2.45
2022-10-19T07:31:18.064Z,2.72
2022-10-19T07:33:45.288Z,2.25
2022-10-19T07:36:13.170Z,2.53
2022-10-19T07:38:40.592Z,5.07
2022-10-19T07:41:09.334Z,4.28
2022-10-19T07:43:38.255Z,4.20
2022-10-19T07:46:08.267Z,3.30
2022-10-19T07:48:35.422Z,2.92
2022-10-19T07:51:04.962Z,3.03
2022-10-19T07:53:32.472Z,3.45
2022-10-19T07:56:05.261Z,3.42
2022-10-19T07:58:32.760Z,3.78
2022-10-19T08:01:02.507Z,3.28
2022-10-19T08:06:17.860Z,3.30
2022-10-19T08:08:45.877Z,2.92
2022-10-19T08:11:14.990Z,2.85
2022-10-19T08:13:42.499Z,2.60
2022-10-19T08:16:22.798Z,3.63
2022-10-19T08:18:50.294Z,3.20
2022-10-19T08:21:17.420Z,3.10
2022-10-19T08:23:44.534Z,3.10
2022-10-19T08:26:11.695Z,2.70
2022-10-19T08:28:38.807Z,2.60
2022-10-19T08:31:13.889Z,3.03
2022-10-19T08:33:42.960Z,2.70
2022-10-19T08:36:12.276Z,2.50
2022-10-19T08:38:39.959Z,2.45
2022-10-19T08:41:18.696Z,2.85
2022-10-19T08:43:57.512Z,2.35
2022-10-19T08:46:27.195Z,2.38
2022-10-19T08:48:56.296Z,2.50
2022-10-19T08:51:23.429Z,2.13
2022-10-19T08:53:54.319Z,2.90
2022-10-19T08:56:49.298Z,2.88
2022-10-19T08:59:28.206Z,2.95
2022-10-19T09:01:58.669Z,2.28
2022-10-19T09:04:32.624Z,2.42
2022-10-19T09:09:41.906Z,2.55
2022-10-19T09:12:16.440Z,2.40
2022-10-19T09:14:53.364Z,3.05
2022-10-19T09:17:20.564Z,2.47
2022-10-19T09:19:49.062Z,2.85
2022-10-19T09:22:20.116Z,2.60
2022-10-19T09:24:51.187Z,2.67
2022-10-19T09:27:21.853Z,2.90
2022-10-19T09:29:53.663Z,3.85
2022-10-19T09:32:25.598Z,3.47
2022-10-19T09:34:56.630Z,5.60
2022-10-19T09:37:26.607Z,4.05
2022-10-19T09:39:55.503Z,3.33
2022-10-19T09:42:26.125Z,3.60
2022-10-19T09:44:54.889Z,3.67
2022-10-19T09:47:36.544Z,3.35
2022-10-19T09:50:27.285Z,3.85
2022-10-19T09:52:57.721Z,3.33
2022-10-19T09:55:35.747Z,2.90
2022-10-19T09:58:06.342Z,3.30
2022-10-19T10:00:40.146Z,2.88
2022-10-19T10:03:07.676Z,2.83
2022-10-19T10:05:38.479Z,2.83
2022-10-19T10:08:14.120Z,3.33
2022-10-19T10:10:45.404Z,2.17
2022-10-19T10:13:17.493Z,2.33
2022-10-19T10:15:48.215Z,2.38
2022-10-19T10:18:17.401Z,2.50
2022-10-19T10:21:01.267Z,2.50
2022-10-19T10:23:31.277Z,2.15
2022-10-19T10:26:00.344Z,2.63
2022-10-19T10:28:29.693Z,2.50
2022-10-19T10:31:02.140Z,2.70
2022-10-19T10:33:44.380Z,2.15
2022-10-19T10:36:14.313Z,2.47
2022-10-19T10:38:45.536Z,2.60
2022-10-19T10:41:15.531Z,2.20
2022-10-19T10:43:55.427Z,2.00
2022-10-19T10:46:27.697Z,2.00
2022-10-19T10:48:58.056Z,1.90
2022-10-19T10:51:32.994Z,1.77
2022-10-19T10:54:12.991Z,1.67
2022-10-19T10:56:43.272Z,1.70
2022-10-19T10:59:16.162Z,1.65
2022-10-19T11:01:54.531Z,1.60
2022-10-19T11:04:25.727Z,1.50
2022-10-19T11:06:59.081Z,1.63
2022-10-19T11:09:31.181Z,1.90
2022-10-19T11:12:02.647Z,1.50
2022-10-19T11:14:36.867Z,1.77
2022-10-19T11:17:07.306Z,1.88
2022-10-19T11:19:37.395Z,1.92
2022-10-19T11:22:15.889Z,2.03
2022-10-19T11:24:52.852Z,1.77
2022-10-19T11:27:32.812Z,1.70
2022-10-19T11:30:10.528Z,1.92
2022-10-19T11:32:51.763Z,1.63
2022-10-19T11:35:35.042Z,2.20
2022-10-19T11:38:22.101Z,1.83
2022-10-19T11:41:16.998Z,1.77
2022-10-19T11:43:57.483Z,2.47
2022-10-19T11:46:30.846Z,2.15
2022-10-19T11:49:16.716Z,2.47
2022-10-19T11:51:51.142Z,2.50
2022-10-19T11:54:36.838Z,3.10
2022-10-19T11:57:12.115Z,2.78
2022-10-19T11:59:53.231Z,2.80
2022-10-19T12:02:49.021Z,2.72
2022-10-19T12:05:22.814Z,3.13
2022-10-19T12:08:04.558Z,3.20
2022-10-19T12:10:43.266Z,3.30
2022-10-19T12:13:14.770Z,3.22
2022-10-19T12:15:46.365Z,3.70
2022-10-19T12:18:27.549Z,2.47
2022-10-19T12:20:58.869Z,2.50
2022-10-19T12:23:31.885Z,2.83
2022-10-19T12:26:03.449Z,2.67
2022-10-19T12:28:33.859Z,2.47
2022-10-19T12:31:02.398Z,2.90
2022-10-19T12:33:37.930Z,2.60
2022-10-19T12:36:14.502Z,2.65
2022-10-19T12:38:59.689Z,2.20
2022-10-19T12:41:36.417Z,2.50
2022-10-19T12:44:22.050Z,2.10
2022-10-19T12:46:54.642Z,2.45
2022-10-19T12:49:45.382Z,2.35
2022-10-19T12:52:13.976Z,2.40
2022-10-19T12:54:42.800Z,2.30
2022-10-19T12:57:26.827Z,2.42
2022-10-19T13:00:00.717Z,2.08
2022-10-19T13:02:30.625Z,2.38
2022-10-19T13:04:57.965Z,2.40
2022-10-19T13:07:27.344Z,2.20
2022-10-19T13:10:01.498Z,2.30
2022-10-19T13:12:47.315Z,2.60
2022-10-19T13:15:47.826Z,1.92
2022-10-19T13:18:16.329Z,2.30
2022-10-19T13:20:52.776Z,2.15
2022-10-19T13:23:39.674Z,2.28
2022-10-19T13:26:34.137Z,2.22
2022-10-19T13:29:02.701Z,2.20
2022-10-19T13:31:31.366Z,2.80
2022-10-19T13:33:58.852Z,2.40
2022-10-19T13:36:26.457Z,2.47
2022-10-19T13:39:13.697Z,1.90
2022-10-19T13:41:50.016Z,2.13
2022-10-19T13:44:24.672Z,2.25
2022-10-19T13:47:09.283Z,2.10
2022-10-19T13:50:10.374Z,2.10
2022-10-19T13:53:06.202Z,2.30
2022-10-19T13:56:18.009Z,1.80
2022-10-19T13:59:08.467Z,2.00
2022-10-19T14:01:53.161Z,2.08
2022-10-19T14:04:30.296Z,2.13
2022-10-19T14:07:05.340Z,2.22
2022-10-19T14:09:54.505Z,1.77
2022-10-19T14:12:24.823Z,2.00
2022-10-19T14:14:52.592Z,2.20
2022-10-19T14:17:22.804Z,2.33
2022-10-19T14:19:52.219Z,2.33
2022-10-19T14:22:24.248Z,2.00
2022-10-19T14:24:51.795Z,2.20
2022-10-19T14:27:23.388Z,2.13
2022-10-19T14:29:53.375Z,2.15
2022-10-19T14:32:25.070Z,2.30
2022-10-19T14:34:53.334Z,2.25
2022-10-19T14:37:22.963Z,2.42
2022-10-19T14:39:58.685Z,2.15
2022-10-19T14:42:36.457Z,2.35
2022-10-19T14:45:06.477Z,1.88
2022-10-19T14:47:34.960Z,2.30
2022-10-19T14:50:03.506Z,2.50
2022-10-19T14:52:35.959Z,2.20
2022-10-19T14:55:11.521Z,2.30
2022-10-19T14:57:43.608Z,2.03
2022-10-19T15:00:17.126Z,2.28
2022-10-19T15:02:52.906Z,2.20
2022-10-19T15:05:22.671Z,2.08
2022-10-19T15:07:51.176Z,2.25
2022-10-19T15:10:21.848Z,2.22
2022-10-19T15:12:51.307Z,2.45
2022-10-19T15:15:24.786Z,2.33
2022-10-19T15:17:55.503Z,2.22
2022-10-19T15:20:26.632Z,2.22
2022-10-19T15:22:54.197Z,2.45
2022-10-19T15:25:31.958Z,2.22
2022-10-19T15:28:18.216Z,2.63
2022-10-19T15:30:45.682Z,2.40
2022-10-19T15:33:15.289Z,2.30
2022-10-19T15:35:44.309Z,2.42
2022-10-19T15:38:20.996Z,2.50
2022-10-19T15:40:48.544Z,2.60
2022-10-19T15:43:35.599Z,2.47
2022-10-19T15:46:04.054Z,2.60
2022-10-19T15:48:45.588Z,2.22
2022-10-19T15:51:46.055Z,2.30
2022-10-19T15:54:14.928Z,2.10
2022-10-19T15:56:43.595Z,2.20
2022-10-19T15:59:13.734Z,2.38
2022-10-19T16:01:41.609Z,2.15
2022-10-19T16:04:10.560Z,2.63
2022-10-19T16:06:41.148Z,2.50
2022-10-19T16:09:13.635Z,2.50
2022-10-19T16:11:40.868Z,2.65
2022-10-19T16:14:08.080Z,2.47
2022-10-19T16:16:35.320Z,2.55
2022-10-19T16:19:03.022Z,2.50
2022-10-19T16:21:34.149Z,2.92
2022-10-19T16:24:01.415Z,2.30
2022-10-19T16:26:28.965Z,2.47
2022-10-19T16:28:56.135Z,2.92
2022-10-19T16:31:24.050Z,3.53
2022-10-19T16:33:51.208Z,3.90
2022-10-19T16:36:18.348Z,2.90
2022-10-19T16:38:47.180Z,2.65
2022-10-19T16:41:14.947Z,2.70
2022-10-19T16:43:42.125Z,2.78
2022-10-19T16:46:09.358Z,2.60
2022-10-19T16:48:36.473Z,2.50
2022-10-19T16:51:29.989Z,2.60
2022-10-19T16:53:58.571Z,3.47
2022-10-19T16:56:28.032Z,2.45
2022-10-19T16:58:57.428Z,3.10
2022-10-19T17:01:24.603Z,2.72
2022-10-19T17:03:51.787Z,4.20
2022-10-19T17:06:20.392Z,4.80
2022-10-19T17:11:38.547Z,7.55
2022-10-19T17:14:08.520Z,7.18
2022-10-19T17:16:37.359Z,6.47
2022-10-19T17:19:07.136Z,6.15
2022-10-19T17:21:36.760Z,6.03
2022-10-19T17:24:06.209Z,6.38
2022-10-19T17:26:34.921Z,5.78
2022-10-19T17:29:04.346Z,6.13
2022-10-19T17:31:31.588Z,5.60
2022-10-19T17:33:58.837Z,5.80
2022-10-19T17:36:28.082Z,5.80
2022-10-19T17:38:56.677Z,5.97
2022-10-19T17:41:24.357Z,5.90
2022-10-19T17:43:52.299Z,5.38
2022-10-19T17:46:23.082Z,5.57
2022-10-19T17:48:50.553Z,5.97
2022-10-19T17:51:19.577Z,5.55
2022-10-19T17:53:48.492Z,6.95
2022-10-19T17:56:17.768Z,5.88
2022-10-19T17:58:45.293Z,5.38
2022-10-19T18:01:13.588Z,5.60
2022-10-19T18:03:42.454Z,5.90
2022-10-19T18:06:12.061Z,4.97
2022-10-19T18:08:40.940Z,5.30
2022-10-19T18:11:10.563Z,5.18
2022-10-19T18:13:38.558Z,5.18
2022-10-19T18:16:08.107Z,5.22
2022-10-19T18:18:38.424Z,5.00
2022-10-19T18:21:08.714Z,5.00
2022-10-19T18:23:36.180Z,4.80
2022-10-19T18:26:04.514Z,4.90
2022-10-19T18:28:31.978Z,4.97
2022-10-19T18:31:04.976Z,5.20
2022-10-19T18:33:32.576Z,4.72
2022-10-19T18:35:59.885Z,4.80
2022-10-19T18:38:28.412Z,4.65
2022-10-19T18:40:55.517Z,4.82
2022-10-19T18:43:22.742Z,4.68
2022-10-19T18:45:53.698Z,4.40
2022-10-19T18:48:21.201Z,4.97
2022-10-19T18:50:48.429Z,4.45
2022-10-19T18:53:15.692Z,4.50
2022-10-19T18:55:44.763Z,4.45
2022-10-19T18:58:12.426Z,4.60
2022-10-19T19:00:42.047Z,4.47
2022-10-19T19:03:11.937Z,4.55
2022-10-19T19:05:39.056Z,4.45
2022-10-19T19:08:06.557Z,4.30
2022-10-19T19:10:33.700Z,4.47
2022-10-19T19:13:02.151Z,4.45
2022-10-19T19:15:29.257Z,4.20
2022-10-19T19:17:56.352Z,4.30
2022-10-19T19:20:23.441Z,4.15
2022-10-19T19:22:50.548Z,4.43
2022-10-19T19:25:18.077Z,4.40
2022-10-19T19:27:45.181Z,4.55
2022-10-19T19:30:13.668Z,4.55
2022-10-19T19:32:41.093Z,4.35
2022-10-19T19:35:08.627Z,4.18
2022-10-19T19:37:35.948Z,4.28
2022-10-19T19:40:03.635Z,4.35
2022-10-19T19:42:30.766Z,4.22
2022-10-19T19:44:58.216Z,3.92
2022-10-19T19:47:26.818Z,4.07
2022-10-19T19:49:53.972Z,4.03
2022-10-19T19:52:21.093Z,4.03
2022-10-19T19:54:48.212Z,4.20
2022-10-19T19:57:15.317Z,3.92
2022-10-19T19:59:42.460Z,3.92
2022-10-19T20:02:10.494Z,4.13
2022-10-19T20:04:38.946Z,4.28
2022-10-19T20:07:06.143Z,4.10
2022-10-19T20:09:33.239Z,4.25
2022-10-19T20:12:00.336Z,4.60
2022-10-19T20:14:27.676Z,4.57
2022-10-19T20:16:54.793Z,4.20
2022-10-19T20:19:21.892Z,4.38
2022-10-19T20:21:50.370Z,4.50
2022-10-19T20:24:17.469Z,4.20
2022-10-19T20:26:44.570Z,4.90
2022-10-19T20:29:11.675Z,4.25
2022-10-19T20:31:39.337Z,4.43
2022-10-19T20:34:08.793Z,4.55
2022-10-19T20:36:35.930Z,3.97
2022-10-19T20:39:04.512Z,4.30
2022-10-19T20:41:31.608Z,4.68
2022-10-19T20:43:58.808Z,4.43
2022-10-19T20:46:28.755Z,4.00
2022-10-19T20:48:57.488Z,4.95
2022-10-19T20:51:30.707Z,4.20
2022-10-19T20:54:00.565Z,4.40
2022-10-19T20:56:31.938Z,4.15
2022-10-19T20:59:00.750Z,4.32
2022-10-19T21:01:29.695Z,3.90
2022-10-19T21:03:58.328Z,4.68
2022-10-19T21:06:28.696Z,4.40
2022-10-19T21:08:56.250Z,4.35
2022-10-19T21:11:25.648Z,4.35
2022-10-19T21:13:55.889Z,4.53
2022-10-19T21:16:25.143Z,4.18
2022-10-19T21:18:52.292Z,4.30
2022-10-19T21:21:20.943Z,4.53
2022-10-19T21:23:50.408Z,4.10
2022-10-19T21:26:17.747Z,4.47
2022-10-19T21:28:48.995Z,4.03
2022-10-19T21:31:17.787Z,4.28
2022-10-19T21:33:45.304Z,4.55
2022-10-19T21:36:13.940Z,4.47
2022-10-19T21:38:41.317Z,4.18
2022-10-19T21:41:11.805Z,4.45
2022-10-19T21:43:39.222Z,4.47
2022-10-19T21:46:08.500Z,4.50
2022-10-19T21:48:36.996Z,3.85
2022-10-19T21:51:17.629Z,4.32
2022-10-19T21:53:44.741Z,4.07
2022-10-19T21:56:12.156Z,4.38
2022-10-19T21:58:44.632Z,3.97
2022-10-19T22:01:11.785Z,4.22
2022-10-19T22:03:40.537Z,3.97
2022-10-19T22:06:08.092Z,4.60
2022-10-19T22:08:35.228Z,4.05
2022-10-19T22:11:05.087Z,4.40
2022-10-19T22:13:32.382Z,4.20
2022-10-19T22:16:03.511Z,4.55
2022-10-19T22:18:30.606Z,4.57
2022-10-19T22:21:02.241Z,4.22
2022-10-19T22:23:29.336Z,3.72
2022-10-19T22:25:56.453Z,4.50
2022-10-19T22:28:23.939Z,4.20
2022-10-19T22:30:54.445Z,4.20
2022-10-19T22:33:21.944Z,4.38
2022-10-19T22:35:56.523Z,3.75
2022-10-19T22:38:25.886Z,3.83
2022-10-19T22:40:53.077Z,4.00
2022-10-19T22:43:20.357Z,3.90
2022-10-19T22:45:47.648Z,4.00
2022-10-19T22:48:14.957Z,4.30
2022-10-19T22:50:42.086Z,4.22
2022-10-19T22:53:09.675Z,4.22
2022-10-19T22:55:38.387Z,3.67
2022-10-19T22:58:06.325Z,3.75
2022-10-19T23:00:33.435Z,4.03
2022-10-19T23:03:00.527Z,4.00
2022-10-19T23:05:27.789Z,3.80
2022-10-19T23:07:54.890Z,4.18
2022-10-19T23:10:22.360Z,4.10
2022-10-19T23:12:51.486Z,3.95
2022-10-19T23:15:19.059Z,3.97
2022-10-19T23:17:46.150Z,3.72
2022-10-19T23:20:13.596Z,3.65
2022-10-19T23:22:40.713Z,4.13
2022-10-19T23:25:09.082Z,4.13
2022-10-19T23:27:36.584Z,3.85
2022-10-19T23:30:06.263Z,4.60
2022-10-19T23:32:33.351Z,4.20
2022-10-19T23:35:00.457Z,4.30
2022-10-19T23:37:27.565Z,4.20
2022-10-19T23:39:54.649Z,3.92
2022-10-19T23:42:21.769Z,3.78
2022-10-19T23:44:48.870Z,4.07
2022-10-19T23:47:17.365Z,4.00
2022-10-19T23:49:44.497Z,3.58
2022-10-19T23:52:11.699Z,3.72
2022-10-19T23:54:38.822Z,4.18
2022-10-19T23:57:06.272Z,3.55
2022-10-19T23:59:33.409Z,3.88
